Time;durP1;ratioP1;P1;durP2;ratioP2;P2;SDS_P1;SDS_P2;PMS_P1;PMS_P2;Temp;Humidity;BMP_temperature;BMP_pressure;BME280_temperature;BME280_humidity;BME280_pressure;Samples;Min_cycle;Max_cycle;Signal;HPM_P1;HPM_P2
2023/09/07 00:01:13;;;;;;;3.67;2.92;;;;;;;;;;5068518;28;42790;-72
2023/09/07 00:03:42;;;;;;;3.20;2.80;;;;;;;;;;5068161;28;41081;-73
2023/09/07 00:06:10;;;;;;;3.22;2.80;;;;;;;;;;5058985;28;41649;-73
2023/09/07 00:08:39;;;;;;;4.68;2.83;;;;;;;;;;5066407;28;41360;-72
2023/09/07 00:11:07;;;;;;;3.20;2.88;;;;;;;;;;5069060;28;40990;-72
2023/09/07 00:13:35;;;;;;;3.75;3.00;;;;;;;;;;5067335;28;41935;-72
2023/09/07 00:16:03;;;;;;;5.95;3.08;;;;;;;;;;5069240;28;40852;-72
2023/09/07 00:18:31;;;;;;;2.83;2.60;;;;;;;;;;5068467;28;41811;-72
2023/09/07 00:21:01;;;;;;;4.88;2.95;;;;;;;;;;5067951;28;42081;-72
2023/09/07 00:23:29;;;;;;;3.47;2.78;;;;;;;;;;5067820;28;40421;-72
2023/09/07 00:25:57;;;;;;;5.38;3.08;;;;;;;;;;5063164;28;42553;-73
2023/09/07 00:28:25;;;;;;;3.30;2.50;;;;;;;;;;5068096;28;43580;-72
2023/09/07 00:30:53;;;;;;;3.47;3.17;;;;;;;;;;5066819;28;39795;-73
2023/09/07 00:33:25;;;;;;;2.92;2.70;;;;;;;;;;5064542;28;41632;-73
2023/09/07 00:35:56;;;;;;;4.35;2.85;;;;;;;;;;5067591;28;40362;-72
2023/09/07 00:38:25;;;;;;;3.45;2.75;;;;;;;;;;5068336;28;41956;-72
2023/09/07 00:40:53;;;;;;;2.60;2.40;;;;;;;;;;5066553;28;41152;-72
2023/09/07 00:43:21;;;;;;;2.83;2.58;;;;;;;;;;5066299;28;39363;-73
2023/09/07 00:45:50;;;;;;;2.67;2.47;;;;;;;;;;5066549;28;42859;-73
2023/09/07 00:48:18;;;;;;;2.60;2.30;;;;;;;;;;5062415;28;41637;-73
2023/09/07 00:50:46;;;;;;;3.95;2.85;;;;;;;;;;5059850;28;42214;-73
2023/09/07 00:53:14;;;;;;;2.90;2.42;;;;;;;;;;5061196;28;41381;-72
2023/09/07 00:55:43;;;;;;;3.10;2.80;;;;;;;;;;5064331;28;40460;-73
2023/09/07 00:58:12;;;;;;;3.10;2.80;;;;;;;;;;5066882;28;42405;-73
2023/09/07 01:00:40;;;;;;;3.28;2.15;;;;;;;;;;5054566;28;40607;-73
2023/09/07 01:03:09;;;;;;;2.50;2.30;;;;;;;;;;5066382;28;40881;-72
2023/09/07 01:05:40;;;;;;;3.15;2.42;;;;;;;;;;5064791;28;41263;-72
2023/09/07 01:08:10;;;;;;;2.50;2.30;;;;;;;;;;5054037;28;42216;-72
2023/09/07 01:10:39;;;;;;;2.55;2.35;;;;;;;;;;5068153;28;39685;-72
2023/09/07 01:13:08;;;;;;;3.33;2.70;;;;;;;;;;5067857;28;41648;-73
2023/09/07 01:15:37;;;;;;;3.20;2.90;;;;;;;;;;5065564;28;42586;-72
2023/09/07 01:18:05;;;;;;;2.63;2.40;;;;;;;;;;5068441;28;41182;-72
2023/09/07 01:20:50;;;;;;;4.05;2.30;;;;;;;;;;5066497;28;43029;-72
2023/09/07 01:23:20;;;;;;;2.80;2.55;;;;;;;;;;5066086;28;41488;-72
2023/09/07 01:25:48;;;;;;;3.08;2.67;;;;;;;;;;5066260;28;40818;-72
2023/09/07 01:28:16;;;;;;;2.60;2.40;;;;;;;;;;5066128;28;41452;-73
2023/09/07 01:30:44;;;;;;;2.72;2.47;;;;;;;;;;5066801;28;40424;-72
2023/09/07 01:33:12;;;;;;;2.25;2.05;;;;;;;;;;5066576;28;40770;-72
2023/09/07 01:35:41;;;;;;;2.88;2.58;;;;;;;;;;5066205;28;40583;-72
2023/09/07 01:38:09;;;;;;;3.08;2.63;;;;;;;;;;5067191;28;40254;-72
2023/09/07 01:40:38;;;;;;;2.70;2.35;;;;;;;;;;5066154;28;40917;-73
2023/09/07 01:43:07;;;;;;;3.30;2.63;;;;;;;;;;5067594;28;40142;-72
2023/09/07 01:45:35;;;;;;;2.90;2.50;;;;;;;;;;5067089;28;41314;-72
2023/09/07 01:48:03;;;;;;;3.33;2.58;;;;;;;;;;5066059;28;41528;-73
2023/09/07 01:50:32;;;;;;;2.60;2.30;;;;;;;;;;5064571;28;41116;-73
2023/09/07 01:53:00;;;;;;;2.70;2.47;;;;;;;;;;5066618;28;41396;-72
2023/09/07 01:55:28;;;;;;;2.72;2.53;;;;;;;;;;5066018;28;41757;-73
2023/09/07 01:57:59;;;;;;;2.22;2.03;;;;;;;;;;5065619;28;38871;-72
2023/09/07 02:00:27;;;;;;;2.60;2.40;;;;;;;;;;5065520;28;40820;-74
2023/09/07 02:02:55;;;;;;;2.45;2.25;;;;;;;;;;5067149;28;40438;-72
2023/09/07 02:05:23;;;;;;;2.28;2.08;;;;;;;;;;5066620;28;40830;-73
2023/09/07 02:07:51;;;;;;;2.95;2.20;;;;;;;;;;5067199;28;42333;-73
2023/09/07 02:10:19;;;;;;;2.45;2.25;;;;;;;;;;5065896;28;40118;-72
2023/09/07 02:12:47;;;;;;;2.45;2.25;;;;;;;;;;5065881;28;41593;-72
2023/09/07 02:15:17;;;;;;;2.83;2.15;;;;;;;;;;5067435;28;42663;-72
2023/09/07 02:17:45;;;;;;;2.75;2.20;;;;;;;;;;5066597;28;40339;-73
2023/09/07 02:20:18;;;;;;;3.83;2.55;;;;;;;;;;5065391;28;39943;-73
2023/09/07 02:22:46;;;;;;;3.35;2.50;;;;;;;;;;5066687;28;42884;-73
2023/09/07 02:25:15;;;;;;;2.83;2.15;;;;;;;;;;5065853;28;41235;-72
2023/09/07 02:27:43;;;;;;;2.33;2.13;;;;;;;;;;5064230;28;40738;-73
2023/09/07 02:30:11;;;;;;;1.95;1.85;;;;;;;;;;5066885;28;40994;-73
2023/09/07 02:32:41;;;;;;;3.70;2.20;;;;;;;;;;5064158;28;41413;-73
2023/09/07 02:35:09;;;;;;;2.38;2.00;;;;;;;;;;5066620;28;42690;-73
2023/09/07 02:37:38;;;;;;;2.33;2.13;;;;;;;;;;5065303;28;40055;-73
2023/09/07 02:40:08;;;;;;;2.30;2.10;;;;;;;;;;5064790;28;40178;-73
2023/09/07 02:42:37;;;;;;;2.30;2.10;;;;;;;;;;5064399;28;40968;-72
2023/09/07 02:45:05;;;;;;;2.53;2.30;;;;;;;;;;5065449;28;39318;-72
2023/09/07 02:47:33;;;;;;;2.28;2.08;;;;;;;;;;5053428;28;40642;-72
2023/09/07 02:50:03;;;;;;;2.35;2.13;;;;;;;;;;5063828;28;41084;-72
2023/09/07 02:52:31;;;;;;;2.10;2.00;;;;;;;;;;5064114;28;40275;-72
2023/09/07 02:54:59;;;;;;;2.63;2.20;;;;;;;;;;5064694;28;41062;-73
2023/09/07 02:57:28;;;;;;;2.65;2.33;;;;;;;;;;5096730;28;39085;-72
2023/09/07 02:59:56;;;;;;;2.40;2.10;;;;;;;;;;5062502;28;40300;-73
2023/09/07 03:02:24;;;;;;;2.42;2.22;;;;;;;;;;5064274;28;42185;-72
2023/09/07 03:04:54;;;;;;;2.65;2.45;;;;;;;;;;5069451;28;41417;-73
2023/09/07 03:07:23;;;;;;;2.30;1.85;;;;;;;;;;5068974;28;41408;-73
2023/09/07 03:09:52;;;;;;;2.20;2.00;;;;;;;;;;5069389;28;41275;-72
2023/09/07 03:12:21;;;;;;;2.00;1.90;;;;;;;;;;5068748;28;40537;-72
2023/09/07 03:14:50;;;;;;;2.15;1.95;;;;;;;;;;5067981;28;41541;-72
2023/09/07 03:17:20;;;;;;;2.35;2.15;;;;;;;;;;5056058;28;38971;-72
2023/09/07 03:19:49;;;;;;;2.80;2.08;;;;;;;;;;5054775;28;40050;-72
2023/09/07 03:22:18;;;;;;;2.03;1.90;;;;;;;;;;5067053;28;40701;-72
2023/09/07 03:24:47;;;;;;;2.20;2.00;;;;;;;;;;5068466;28;39233;-72
2023/09/07 03:27:15;;;;;;;2.60;2.40;;;;;;;;;;5068868;28;40513;-72
2023/09/07 03:29:44;;;;;;;3.72;2.03;;;;;;;;;;5068233;28;32386;-72
2023/09/07 03:32:12;;;;;;;2.40;2.20;;;;;;;;;;5067493;28;40208;-72
2023/09/07 03:34:41;;;;;;;2.95;2.05;;;;;;;;;;5065906;28;42521;-72
2023/09/07 03:37:11;;;;;;;2.03;1.85;;;;;;;;;;5101778;28;39043;-72
2023/09/07 03:39:40;;;;;;;2.63;2.10;;;;;;;;;;5067913;28;40006;-73
2023/09/07 03:42:09;;;;;;;2.05;1.85;;;;;;;;;;5068091;28;40873;-73
2023/09/07 03:44:39;;;;;;;2.30;2.10;;;;;;;;;;5068351;28;41606;-72
2023/09/07 03:47:08;;;;;;;2.63;2.08;;;;;;;;;;5068322;28;41023;-73
2023/09/07 03:49:37;;;;;;;2.15;1.95;;;;;;;;;;5067854;28;41868;-73
2023/09/07 03:52:05;;;;;;;2.40;2.20;;;;;;;;;;5068759;28;40482;-73
2023/09/07 03:54:33;;;;;;;1.85;1.65;;;;;;;;;;5068914;28;41899;-72
2023/09/07 03:57:02;;;;;;;1.70;1.60;;;;;;;;;;5066224;28;41286;-73
2023/09/07 03:59:33;;;;;;;2.00;1.83;;;;;;;;;;5067165;28;40725;-73
2023/09/07 04:02:01;;;;;;;2.10;1.90;;;;;;;;;;5067114;28;43219;-72
2023/09/07 04:04:29;;;;;;;2.22;2.03;;;;;;;;;;5064998;28;40341;-73
2023/09/07 04:06:58;;;;;;;2.15;1.95;;;;;;;;;;5064702;28;41132;-72
2023/09/07 04:09:25;;;;;;;1.90;1.67;;;;;;;;;;5065494;28;42001;-72
2023/09/07 04:11:54;;;;;;;1.83;1.73;;;;;;;;;;5068434;28;40090;-72
2023/09/07 04:14:22;;;;;;;1.77;1.67;;;;;;;;;;5068221;28;42285;-72
2023/09/07 04:16:51;;;;;;;1.90;1.80;;;;;;;;;;5068753;28;41080;-72
2023/09/07 04:19:19;;;;;;;2.22;2.03;;;;;;;;;;5066336;28;40463;-72
2023/09/07 04:21:47;;;;;;;1.95;1.77;;;;;;;;;;5067923;28;42183;-73
2023/09/07 04:24:15;;;;;;;2.10;1.90;;;;;;;;;;5067103;28;38467;-73
2023/09/07 04:26:43;;;;;;;2.88;2.05;;;;;;;;;;5066421;28;40094;-72
2023/09/07 04:29:12;;;;;;;2.20;2.00;;;;;;;;;;5066921;28;40469;-72
2023/09/07 04:31:41;;;;;;;2.10;1.90;;;;;;;;;;5070748;28;39653;-72
2023/09/07 04:34:10;;;;;;;2.08;1.88;;;;;;;;;;5067198;28;40585;-73
2023/09/07 04:36:38;;;;;;;2.05;1.83;;;;;;;;;;5066544;28;40068;-72
2023/09/07 04:39:06;;;;;;;1.83;1.73;;;;;;;;;;5068319;28;41081;-72
2023/09/07 04:41:34;;;;;;;2.20;2.03;;;;;;;;;;5077716;28;40675;-72
2023/09/07 04:44:03;;;;;;;2.10;1.90;;;;;;;;;;5065522;28;40638;-72
2023/09/07 04:46:31;;;;;;;2.25;2.05;;;;;;;;;;5067438;28;41367;-73
2023/09/07 04:48:59;;;;;;;2.00;1.90;;;;;;;;;;5066960;28;41829;-72
2023/09/07 04:51:28;;;;;;;2.13;1.92;;;;;;;;;;5068292;28;39811;-72
2023/09/07 04:53:57;;;;;;;1.80;1.70;;;;;;;;;;5066155;28;40388;-73
2023/09/07 04:56:25;;;;;;;3.03;2.00;;;;;;;;;;5064747;28;40513;-72
2023/09/07 04:58:54;;;;;;;1.95;1.80;;;;;;;;;;5067028;28;40556;-72
2023/09/07 05:01:22;;;;;;;1.80;1.70;;;;;;;;;;5059939;28;40660;-72
2023/09/07 05:03:52;;;;;;;2.38;2.00;;;;;;;;;;5067125;28;39571;-73
2023/09/07 05:06:22;;;;;;;2.35;2.15;;;;;;;;;;5059922;28;41503;-73
2023/09/07 05:08:52;;;;;;;1.92;1.83;;;;;;;;;;5066102;28;41199;-73
2023/09/07 05:11:20;;;;;;;1.90;1.70;;;;;;;;;;5068065;28;40389;-73
2023/09/07 05:13:48;;;;;;;2.28;2.08;;;;;;;;;;5067517;28;40869;-72
2023/09/07 05:16:16;;;;;;;2.10;1.90;;;;;;;;;;5066402;28;41813;-73
2023/09/07 05:18:45;;;;;;;1.85;1.75;;;;;;;;;;5064521;28;38982;-73
2023/09/07 05:21:13;;;;;;;2.35;1.85;;;;;;;;;;5066256;28;41753;-72
2023/09/07 05:23:42;;;;;;;2.13;1.77;;;;;;;;;;5065309;28;39793;-73
2023/09/07 05:26:11;;;;;;;2.10;1.90;;;;;;;;;;5067349;28;40446;-72
2023/09/07 05:28:40;;;;;;;2.03;1.83;;;;;;;;;;5066745;28;42106;-72
2023/09/07 05:31:08;;;;;;;2.33;2.13;;;;;;;;;;5066667;28;38816;-75
2023/09/07 05:33:37;;;;;;;2.08;1.88;;;;;;;;;;5063988;28;41006;-72
2023/09/07 05:36:05;;;;;;;2.33;2.13;;;;;;;;;;5057110;28;41852;-73
2023/09/07 05:38:34;;;;;;;2.85;2.00;;;;;;;;;;5066192;28;39345;-73
2023/09/07 05:41:02;;;;;;;2.20;2.00;;;;;;;;;;5068168;28;41864;-73
2023/09/07 05:43:31;;;;;;;2.30;2.10;;;;;;;;;;5065168;28;39675;-73
2023/09/07 05:46:00;;;;;;;2.17;1.98;;;;;;;;;;5062602;28;41056;-73
2023/09/07 05:48:28;;;;;;;1.95;1.80;;;;;;;;;;5099312;27;40559;-73
2023/09/07 05:50:57;;;;;;;2.50;2.17;;;;;;;;;;5065986;28;39236;-72
2023/09/07 05:53:26;;;;;;;2.38;2.17;;;;;;;;;;5066127;28;40964;-72
2023/09/07 05:55:54;;;;;;;2.20;2.00;;;;;;;;;;5065681;28;41805;-73
2023/09/07 05:58:22;;;;;;;2.40;2.20;;;;;;;;;;5061009;28;40057;-72
2023/09/07 06:00:51;;;;;;;2.20;2.00;;;;;;;;;;5066429;28;40273;-72
2023/09/07 06:03:20;;;;;;;2.53;2.33;;;;;;;;;;5065504;28;40790;-72
2023/09/07 06:05:48;;;;;;;2.53;2.10;;;;;;;;;;5064211;28;42609;-73
2023/09/07 06:08:16;;;;;;;6.30;3.80;;;;;;;;;;5065113;28;41097;-73
2023/09/07 06:10:44;;;;;;;9.30;6.40;;;;;;;;;;5066500;28;41142;-73
2023/09/07 06:13:12;;;;;;;8.40;6.13;;;;;;;;;;5065897;28;41526;-73
2023/09/07 06:15:40;;;;;;;9.00;6.03;;;;;;;;;;5067157;28;42296;-73
2023/09/07 06:18:10;;;;;;;7.18;6.47;;;;;;;;;;5066038;28;39353;-74
2023/09/07 06:20:38;;;;;;;12.85;7.15;;;;;;;;;;5059477;28;40598;-74
2023/09/07 06:23:06;;;;;;;10.43;7.55;;;;;;;;;;5065889;28;41383;-74
2023/09/07 06:25:34;;;;;;;8.13;7.32;;;;;;;;;;5065057;28;40943;-74
2023/09/07 06:28:03;;;;;;;9.88;7.38;;;;;;;;;;5067409;28;42077;-74
2023/09/07 06:30:31;;;;;;;9.00;7.45;;;;;;;;;;5097908;28;39330;-74
2023/09/07 06:32:59;;;;;;;13.20;7.07;;;;;;;;;;5065250;28;40485;-74
2023/09/07 06:35:29;;;;;;;19.42;7.20;;;;;;;;;;5067425;28;40635;-74
2023/09/07 06:37:57;;;;;;;12.32;7.55;;;;;;;;;;5069676;28;41412;-74
2023/09/07 06:40:26;;;;;;;9.45;7.03;;;;;;;;;;5068295;28;39847;-73
2023/09/07 06:42:58;;;;;;;11.60;7.68;;;;;;;;;;5069124;28;40895;-73
2023/09/07 06:45:27;;;;;;;13.00;7.75;;;;;;;;;;5069699;28;39219;-74
2023/09/07 06:47:55;;;;;;;9.60;7.43;;;;;;;;;;5068529;28;40779;-74
2023/09/07 06:50:25;;;;;;;10.30;7.65;;;;;;;;;;5068794;28;39743;-74
2023/09/07 06:52:55;;;;;;;13.95;7.38;;;;;;;;;;5064017;28;40577;-75
2023/09/07 06:55:23;;;;;;;19.50;8.10;;;;;;;;;;5072151;28;40912;-74
2023/09/07 06:57:51;;;;;;;8.15;7.35;;;;;;;;;;5067432;28;39137;-74
2023/09/07 07:00:19;;;;;;;9.95;7.25;;;;;;;;;;5068533;28;42873;-74
2023/09/07 07:02:48;;;;;;;12.32;7.82;;;;;;;;;;5073033;28;40638;-74
2023/09/07 07:05:16;;;;;;;12.55;7.45;;;;;;;;;;5068339;28;38886;-75
2023/09/07 07:07:44;;;;;;;12.90;7.70;;;;;;;;;;5068486;28;41069;-74
2023/09/07 07:10:13;;;;;;;8.52;7.38;;;;;;;;;;5068113;28;41212;-74
2023/09/07 07:12:42;;;;;;;12.38;7.78;;;;;;;;;;5066965;28;41604;-74
2023/09/07 07:15:11;;;;;;;8.13;7.28;;;;;;;;;;5067745;28;40578;-75
2023/09/07 07:17:39;;;;;;;10.00;7.60;;;;;;;;;;5068258;28;38921;-75
2023/09/07 07:20:08;;;;;;;13.27;7.50;;;;;;;;;;5068506;28;41272;-75
2023/09/07 07:22:36;;;;;;;12.93;8.02;;;;;;;;;;5065965;28;42387;-74
2023/09/07 07:25:05;;;;;;;8.88;7.97;;;;;;;;;;5064901;28;40476;-76
2023/09/07 07:27:36;;;;;;;8.73;7.32;;;;;;;;;;5078794;28;40117;-74
2023/09/07 07:30:04;;;;;;;8.30;7.40;;;;;;;;;;5065856;28;40872;-74
2023/09/07 07:32:32;;;;;;;8.75;7.60;;;;;;;;;;5066606;28;40091;-75
2023/09/07 07:35:01;;;;;;;12.10;7.18;;;;;;;;;;5061926;28;41180;-74
2023/09/07 07:37:29;;;;;;;9.93;7.00;;;;;;;;;;5066989;28;38986;-73
2023/09/07 07:39:58;;;;;;;12.77;7.00;;;;;;;;;;5068397;28;42427;-73
2023/09/07 07:42:26;;;;;;;10.25;8.00;;;;;;;;;;5067151;28;41409;-74
2023/09/07 07:44:56;;;;;;;9.60;6.85;;;;;;;;;;5068332;28;38712;-73
2023/09/07 07:47:26;;;;;;;10.52;7.05;;;;;;;;;;5068770;28;42522;-74
2023/09/07 07:49:54;;;;;;;7.85;7.05;;;;;;;;;;5067575;28;42017;-73
2023/09/07 07:52:23;;;;;;;8.20;7.05;;;;;;;;;;5064031;28;38789;-74
2023/09/07 07:54:53;;;;;;;11.05;6.97;;;;;;;;;;5068438;28;40773;-74
2023/09/07 07:57:22;;;;;;;8.38;6.93;;;;;;;;;;5067956;28;39380;-74
2023/09/07 07:59:50;;;;;;;8.13;6.80;;;;;;;;;;5070160;28;43105;-74
2023/09/07 08:02:20;;;;;;;8.80;7.03;;;;;;;;;;5067394;28;40894;-74
2023/09/07 08:04:49;;;;;;;8.95;7.80;;;;;;;;;;5067310;28;39975;-74
2023/09/07 08:07:17;;;;;;;8.45;7.07;;;;;;;;;;5067037;28;40160;-74
2023/09/07 08:09:45;;;;;;;8.90;7.20;;;;;;;;;;5067011;28;41785;-73
2023/09/07 08:12:14;;;;;;;8.40;7.15;;;;;;;;;;5067954;28;38753;-74
2023/09/07 08:14:42;;;;;;;9.25;7.57;;;;;;;;;;5067493;28;41039;-74
2023/09/07 08:17:10;;;;;;;11.38;8.20;;;;;;;;;;5068371;28;41445;-73
2023/09/07 08:19:40;;;;;;;17.00;9.35;;;;;;;;;;5067102;28;39495;-79
2023/09/07 08:22:08;;;;;;;10.98;7.97;;;;;;;;;;5066238;28;41353;-74
2023/09/07 08:24:36;;;;;;;9.30;7.00;;;;;;;;;;5066170;28;38944;-74
2023/09/07 08:27:05;;;;;;;9.82;6.53;;;;;;;;;;5059040;28;41363;-73
2023/09/07 08:29:33;;;;;;;8.73;6.38;;;;;;;;;;5066542;28;40554;-73
2023/09/07 08:32:03;;;;;;;8.40;6.18;;;;;;;;;;5060774;28;40012;-73
2023/09/07 08:34:32;;;;;;;9.75;6.03;;;;;;;;;;5065126;28;41516;-73
2023/09/07 08:37:01;;;;;;;8.75;5.97;;;;;;;;;;5068701;28;40488;-73
2023/09/07 08:39:29;;;;;;;10.57;5.95;;;;;;;;;;5067606;28;41327;-74
2023/09/07 08:41:58;;;;;;;8.25;5.85;;;;;;;;;;5068434;28;42026;-73
2023/09/07 08:44:29;;;;;;;20.17;6.90;;;;;;;;;;5067817;28;41907;-73
2023/09/07 08:46:57;;;;;;;15.18;6.20;;;;;;;;;;5067122;28;41744;-72
2023/09/07 08:49:25;;;;;;;10.95;6.47;;;;;;;;;;5067156;28;42098;-72
2023/09/07 08:51:53;;;;;;;16.92;5.85;;;;;;;;;;5064814;28;40391;-72
2023/09/07 08:54:22;;;;;;;8.93;6.07;;;;;;;;;;5066916;28;41765;-72
2023/09/07 08:56:51;;;;;;;7.32;5.53;;;;;;;;;;5067107;28;41978;-73
2023/09/07 08:59:19;;;;;;;15.00;7.95;;;;;;;;;;5064236;28;42599;-73
2023/09/07 09:01:47;;;;;;;15.70;9.70;;;;;;;;;;5052629;28;41948;-73
2023/09/07 09:04:15;;;;;;;13.57;9.32;;;;;;;;;;5066087;28;39167;-73
2023/09/07 09:06:44;;;;;;;13.77;8.02;;;;;;;;;;5066973;28;41805;-73
2023/09/07 09:09:13;;;;;;;8.02;7.22;;;;;;;;;;5080434;28;41289;-73
2023/09/07 09:11:42;;;;;;;10.77;6.55;;;;;;;;;;5066924;28;39980;-73
2023/09/07 09:14:10;;;;;;;8.70;6.40;;;;;;;;;;5067767;28;42625;-73
2023/09/07 09:16:38;;;;;;;9.00;6.75;;;;;;;;;;5064355;28;42932;-74
2023/09/07 09:19:07;;;;;;;7.13;6.43;;;;;;;;;;5058491;28;41045;-74
2023/09/07 09:21:35;;;;;;;11.77;6.68;;;;;;;;;;5059877;28;43241;-74
2023/09/07 09:24:03;;;;;;;12.95;6.78;;;;;;;;;;5057056;28;40604;-74
2023/09/07 09:26:32;;;;;;;9.63;5.72;;;;;;;;;;5068940;28;20237;-74
2023/09/07 09:29:02;;;;;;;9.38;6.35;;;;;;;;;;5067391;28;43207;-74
2023/09/07 09:31:30;;;;;;;8.40;5.75;;;;;;;;;;5065494;28;41916;-74
2023/09/07 09:33:58;;;;;;;10.32;5.80;;;;;;;;;;5064299;28;41407;-74
2023/09/07 09:36:33;;;;;;;9.05;5.88;;;;;;;;;;5065548;28;42662;-73
2023/09/07 09:39:02;;;;;;;8.65;6.70;;;;;;;;;;5063312;28;41557;-74
2023/09/07 09:41:31;;;;;;;10.27;6.28;;;;;;;;;;5066528;28;41136;-73
2023/09/07 09:43:59;;;;;;;7.45;6.22;;;;;;;;;;5066614;28;40549;-73
2023/09/07 09:46:28;;;;;;;11.82;6.38;;;;;;;;;;5052929;28;41629;-74
2023/09/07 09:48:56;;;;;;;6.78;5.20;;;;;;;;;;5046692;28;40807;-74
2023/09/07 09:51:24;;;;;;;6.63;5.55;;;;;;;;;;5059987;28;41081;-74
2023/09/07 09:53:52;;;;;;;8.00;6.45;;;;;;;;;;5082459;28;40637;-73
2023/09/07 09:56:21;;;;;;;7.03;6.03;;;;;;;;;;5067193;28;43119;-74
2023/09/07 09:58:49;;;;;;;7.78;5.20;;;;;;;;;;5063245;28;40916;-74
2023/09/07 10:01:17;;;;;;;5.95;5.35;;;;;;;;;;5067739;28;41352;-74
2023/09/07 10:03:47;;;;;;;7.45;5.60;;;;;;;;;;5066550;28;40339;-74
2023/09/07 10:06:19;;;;;;;8.23;5.20;;;;;;;;;;5065382;28;41135;-73
2023/09/07 10:08:53;;;;;;;6.28;5.18;;;;;;;;;;5064675;28;41990;-74
2023/09/07 10:11:27;;;;;;;7.40;5.10;;;;;;;;;;5067572;28;40305;-73
2023/09/07 10:13:58;;;;;;;8.20;5.15;;;;;;;;;;5069858;28;41657;-73
2023/09/07 10:16:27;;;;;;;7.25;5.55;;;;;;;;;;5062429;28;42078;-73
2023/09/07 10:18:56;;;;;;;11.48;6.00;;;;;;;;;;5070310;28;40834;-73
2023/09/07 10:21:25;;;;;;;8.60;6.28;;;;;;;;;;5063235;28;41936;-73
2023/09/07 10:23:54;;;;;;;7.50;5.95;;;;;;;;;;5069042;28;41802;-74
2023/09/07 10:26:22;;;;;;;9.95;6.00;;;;;;;;;;5070464;28;41431;-73
2023/09/07 10:28:59;;;;;;;11.65;5.85;;;;;;;;;;5069817;28;43340;-73
2023/09/07 10:31:27;;;;;;;10.60;5.57;;;;;;;;;;5066101;28;40371;-73
2023/09/07 10:34:17;;;;;;;21.38;6.53;;;;;;;;;;5065353;28;41716;-72
2023/09/07 10:36:45;;;;;;;15.88;5.85;;;;;;;;;;5071286;28;43066;-74
2023/09/07 10:39:13;;;;;;;15.23;5.30;;;;;;;;;;5070806;28;40518;-72
2023/09/07 10:41:44;;;;;;;9.75;5.18;;;;;;;;;;5070192;28;41493;-73
2023/09/07 10:44:13;;;;;;;8.70;5.30;;;;;;;;;;5071046;28;41704;-74
2023/09/07 10:46:42;;;;;;;7.95;4.85;;;;;;;;;;5070048;28;41065;-73
2023/09/07 10:49:12;;;;;;;9.20;5.28;;;;;;;;;;5071312;28;42130;-74
2023/09/07 10:51:45;;;;;;;7.63;5.18;;;;;;;;;;5070083;28;40615;-74
2023/09/07 10:54:16;;;;;;;22.55;5.15;;;;;;;;;;5070981;28;42824;-74
2023/09/07 10:56:44;;;;;;;11.02;5.93;;;;;;;;;;5069806;28;43105;-74
2023/09/07 10:59:12;;;;;;;6.10;5.50;;;;;;;;;;5069889;28;40180;-74
2023/09/07 11:01:40;;;;;;;8.50;5.72;;;;;;;;;;5069945;28;41777;-74
2023/09/07 11:04:11;;;;;;;14.50;5.90;;;;;;;;;;5070758;28;43159;-74
2023/09/07 11:06:39;;;;;;;8.95;5.70;;;;;;;;;;5065767;28;41413;-73
2023/09/07 11:09:10;;;;;;;9.68;6.32;;;;;;;;;;5070194;28;41811;-74
2023/09/07 11:11:39;;;;;;;7.50;5.72;;;;;;;;;;5068169;28;41414;-74
2023/09/07 11:14:07;;;;;;;7.43;5.53;;;;;;;;;;5070116;28;43233;-74
2023/09/07 11:16:35;;;;;;;10.43;6.60;;;;;;;;;;5063048;28;42132;-74
2023/09/07 11:19:04;;;;;;;9.07;6.05;;;;;;;;;;5054821;28;40616;-74
2023/09/07 11:21:35;;;;;;;6.95;5.85;;;;;;;;;;5064338;28;41033;-74
2023/09/07 11:24:05;;;;;;;12.07;5.50;;;;;;;;;;5063320;28;41926;-75
2023/09/07 11:26:44;;;;;;;10.48;5.93;;;;;;;;;;5070171;28;40433;-75
2023/09/07 11:29:14;;;;;;;10.18;6.13;;;;;;;;;;5068185;28;41591;-75
2023/09/07 11:31:42;;;;;;;8.77;6.10;;;;;;;;;;5069691;28;41796;-74
2023/09/07 11:34:11;;;;;;;7.47;6.20;;;;;;;;;;5068470;28;43094;-74
2023/09/07 11:36:40;;;;;;;7.18;5.93;;;;;;;;;;5069622;28;42130;-74
2023/09/07 11:39:12;;;;;;;8.27;5.30;;;;;;;;;;5069453;28;40445;-74
2023/09/07 11:41:40;;;;;;;7.80;5.80;;;;;;;;;;5066112;28;41265;-75
2023/09/07 11:44:10;;;;;;;12.30;5.32;;;;;;;;;;5069454;28;41789;-75
2023/09/07 11:46:39;;;;;;;8.85;5.63;;;;;;;;;;5069555;28;39696;-75
2023/09/07 11:49:08;;;;;;;11.02;5.72;;;;;;;;;;5068974;28;41466;-75
2023/09/07 11:51:37;;;;;;;9.77;6.53;;;;;;;;;;5067896;28;43021;-73
2023/09/07 11:54:05;;;;;;;8.57;6.45;;;;;;;;;;5069865;28;40209;-76
2023/09/07 11:56:37;;;;;;;10.23;6.32;;;;;;;;;;5059738;28;42720;-76
2023/09/07 11:59:04;;;;;;;8.77;7.13;;;;;;;;;;5066427;28;40298;-76
2023/09/07 12:01:34;;;;;;;10.20;7.50;;;;;;;;;;5068879;28;41181;-76
2023/09/07 12:04:04;;;;;;;11.55;8.02;;;;;;;;;;5068805;28;42276;-75
2023/09/07 12:06:32;;;;;;;9.43;7.10;;;;;;;;;;5069102;28;40115;-73
2023/09/07 12:09:00;;;;;;;7.40;6.70;;;;;;;;;;5069138;28;42416;-73
2023/09/07 12:11:28;;;;;;;11.95;6.60;;;;;;;;;;5068139;28;42775;-74
2023/09/07 12:13:56;;;;;;;14.50;6.63;;;;;;;;;;5069644;28;41485;-73
2023/09/07 12:16:25;;;;;;;16.10;6.85;;;;;;;;;;5066569;28;42768;-73
2023/09/07 12:18:55;;;;;;;8.05;6.90;;;;;;;;;;5068222;28;39805;-73
2023/09/07 12:21:23;;;;;;;8.43;6.68;;;;;;;;;;5069074;28;42376;-73
2023/09/07 12:23:51;;;;;;;8.43;6.55;;;;;;;;;;5066985;28;43332;-73
2023/09/07 12:26:20;;;;;;;8.23;5.90;;;;;;;;;;5068948;28;40634;-74
2023/09/07 12:28:51;;;;;;;11.60;6.03;;;;;;;;;;5065559;28;41780;-73
2023/09/07 12:31:19;;;;;;;14.15;6.95;;;;;;;;;;5067820;28;42453;-73
2023/09/07 12:33:46;;;;;;;6.40;5.70;;;;;;;;;;5068052;28;40022;-73
2023/09/07 12:36:16;;;;;;;7.40;6.00;;;;;;;;;;5068974;28;42763;-73
2023/09/07 12:38:44;;;;;;;6.30;5.70;;;;;;;;;;5067839;28;40503;-73
2023/09/07 12:41:13;;;;;;;8.48;6.00;;;;;;;;;;5068733;28;42825;-73
2023/09/07 12:43:42;;;;;;;8.10;5.45;;;;;;;;;;5067859;28;42528;-73
2023/09/07 12:46:10;;;;;;;9.98;5.18;;;;;;;;;;5062001;28;40129;-73
2023/09/07 12:48:38;;;;;;;7.00;5.10;;;;;;;;;;5067964;28;42072;-73
2023/09/07 12:51:06;;;;;;;5.43;4.93;;;;;;;;;;5068425;28;41984;-73
2023/09/07 12:53:35;;;;;;;7.68;5.20;;;;;;;;;;5066902;28;41030;-73
2023/09/07 12:56:04;;;;;;;5.95;4.82;;;;;;;;;;5068613;28;42156;-73
2023/09/07 12:58:31;;;;;;;9.38;4.72;;;;;;;;;;5064789;28;41832;-73
2023/09/07 13:00:59;;;;;;;10.98;5.10;;;;;;;;;;5068182;28;42755;-73
2023/09/07 13:03:28;;;;;;;10.85;5.13;;;;;;;;;;5067382;28;42230;-74
2023/09/07 13:05:56;;;;;;;5.57;5.03;;;;;;;;;;5067533;28;40502;-74
2023/09/07 13:08:24;;;;;;;5.95;5.32;;;;;;;;;;5067550;28;42910;-72
2023/09/07 13:10:53;;;;;;;7.10;5.10;;;;;;;;;;5067945;28;42135;-75
2023/09/07 13:13:22;;;;;;;5.28;4.78;;;;;;;;;;5066755;28;41608;-76
2023/09/07 13:15:50;;;;;;;6.30;4.95;;;;;;;;;;5068239;28;42775;-73
2023/09/07 13:18:18;;;;;;;5.75;4.95;;;;;;;;;;5066451;28;41991;-74
2023/09/07 13:20:48;;;;;;;6.57;5.20;;;;;;;;;;5067405;28;41558;-75
2023/09/07 13:23:16;;;;;;;5.80;5.30;;;;;;;;;;5067615;28;42944;-72
2023/09/07 13:25:44;;;;;;;6.03;5.18;;;;;;;;;;5084041;28;39056;-73
2023/09/07 13:28:13;;;;;;;5.45;4.95;;;;;;;;;;5067884;28;41880;-72
2023/09/07 13:30:41;;;;;;;10.93;4.82;;;;;;;;;;5067604;28;43178;-71
2023/09/07 13:33:09;;;;;;;6.72;5.07;;;;;;;;;;5068022;28;41465;-71
2023/09/07 13:35:39;;;;;;;6.05;4.60;;;;;;;;;;5066740;28;43305;-72
2023/09/07 13:38:07;;;;;;;6.65;4.90;;;;;;;;;;5067442;28;42448;-71
2023/09/07 13:40:35;;;;;;;5.22;4.80;;;;;;;;;;5066398;28;42190;-71
2023/09/07 13:43:03;;;;;;;6.65;4.60;;;;;;;;;;5067990;28;42718;-71
2023/09/07 13:45:32;;;;;;;6.05;4.15;;;;;;;;;;5066824;28;41045;-71
2023/09/07 13:48:00;;;;;;;4.93;4.45;;;;;;;;;;5066890;28;42473;-71
2023/09/07 13:50:29;;;;;;;6.82;4.43;;;;;;;;;;5067147;28;42988;-71
2023/09/07 13:52:57;;;;;;;5.43;4.90;;;;;;;;;;5067856;28;40992;-72
2023/09/07 13:55:25;;;;;;;6.20;4.40;;;;;;;;;;5066803;28;42716;-71
2023/09/07 13:57:53;;;;;;;5.88;4.70;;;;;;;;;;5066309;28;42518;-71
2023/09/07 14:00:21;;;;;;;4.80;4.40;;;;;;;;;;5068303;28;40112;-71
2023/09/07 14:02:52;;;;;;;5.45;4.18;;;;;;;;;;5066413;28;42776;-71
2023/09/07 14:05:20;;;;;;;4.90;4.50;;;;;;;;;;5066637;28;33913;-71
2023/09/07 14:07:48;;;;;;;6.05;4.72;;;;;;;;;;5068051;28;41791;-72
2023/09/07 14:10:16;;;;;;;6.10;4.20;;;;;;;;;;5066723;28;43037;-71
2023/09/07 14:12:46;;;;;;;4.95;4.28;;;;;;;;;;5067906;28;41526;-72
2023/09/07 14:15:14;;;;;;;4.63;4.22;;;;;;;;;;5059270;28;41043;-72
2023/09/07 14:17:43;;;;;;;4.88;4.05;;;;;;;;;;5067306;28;42917;-71
2023/09/07 14:20:12;;;;;;;4.75;4.35;;;;;;;;;;5067405;28;41218;-71
2023/09/07 14:22:40;;;;;;;4.53;4.15;;;;;;;;;;5066186;28;41996;-71
2023/09/07 14:25:08;;;;;;;5.15;4.30;;;;;;;;;;5067173;28;41886;-72
2023/09/07 14:27:36;;;;;;;5.65;4.38;;;;;;;;;;5066853;28;41731;-71
2023/09/07 14:30:05;;;;;;;5.32;4.05;;;;;;;;;;5066952;28;43260;-71
2023/09/07 14:32:33;;;;;;;9.38;4.47;;;;;;;;;;5066920;28;40102;-70
2023/09/07 14:35:01;;;;;;;5.15;4.05;;;;;;;;;;5066892;28;42762;-72
2023/09/07 14:37:30;;;;;;;7.65;4.53;;;;;;;;;;5066142;28;42303;-71
2023/09/07 14:39:59;;;;;;;6.72;4.32;;;;;;;;;;5068227;28;39822;-72
2023/09/07 14:42:27;;;;;;;11.05;5.05;;;;;;;;;;5067279;28;41657;-72
2023/09/07 14:44:57;;;;;;;6.10;4.90;;;;;;;;;;5066703;28;42905;-72
2023/09/07 14:47:26;;;;;;;7.35;4.85;;;;;;;;;;5066848;28;41735;-71
2023/09/07 14:49:54;;;;;;;7.55;4.63;;;;;;;;;;5067155;28;42870;-71